createdAt,value
2022-09-10T00:00:31.686Z,95298.72
2022-09-10T00:02:58.337Z,95298.16
2022-09-10T00:05:25.044Z,95307.41
2022-09-10T00:07:51.757Z,95308.19
2022-09-10T00:10:21.348Z,95303.13
2022-09-10T00:12:48.179Z,95306.91
2022-09-10T00:15:15.460Z,95311.13
2022-09-10T00:17:42.104Z,95310.44
2022-09-10T00:20:09.348Z,95306.63
2022-09-10T00:22:35.973Z,95306.78
2022-09-10T00:25:07.632Z,95289.13
2022-09-10T00:27:35.950Z,95292.75
2022-09-10T00:30:03.378Z,95288.31
2022-09-10T00:32:29.998Z,95297.03
2022-09-10T00:34:57.227Z,95295.34
2022-09-10T00:37:23.811Z,95306.16
2022-09-10T00:39:50.446Z,95298.78
2022-09-10T00:42:19.620Z,95290.91
2022-09-10T00:44:46.174Z,95289.69
2022-09-10T00:47:17.615Z,95285.59
2022-09-10T00:49:48.517Z,95280.06
2022-09-10T00:52:15.366Z,95280.47
2022-09-10T00:54:42.766Z,95283.00
2022-09-10T00:57:13.997Z,95274.50
2022-09-10T00:59:42.910Z,95271.78
2022-09-10T01:02:09.783Z,95272.34
2022-09-10T01:04:36.608Z,95272.84
2022-09-10T01:07:03.287Z,95271.78
2022-09-10T01:09:32.634Z,95277.19
2022-09-10T01:12:08.182Z,95271.19
2022-09-10T01:14:40.828Z,95278.13
2022-09-10T01:17:46.738Z,95289.38
2022-09-10T01:20:16.315Z,95281.09
2022-09-10T01:23:27.968Z,95285.84
2022-09-10T01:26:09.407Z,95282.31
2022-09-10T01:28:54.480Z,95272.84
2022-09-10T01:31:30.799Z,95278.66
2022-09-10T01:34:03.780Z,95283.44
2022-09-10T01:36:33.815Z,95275.31
2022-09-10T01:39:00.777Z,95276.44
2022-09-10T01:41:28.441Z,95270.03
2022-09-10T01:43:55.052Z,95269.91
2022-09-10T01:46:59.038Z,95270.56
2022-09-10T01:49:41.119Z,95268.75
2022-09-10T01:52:32.569Z,95265.69
2022-09-10T01:55:10.599Z,95261.53
2022-09-10T01:57:49.556Z,95269.09
2022-09-10T02:00:17.224Z,95259.03
2022-09-10T02:02:58.469Z,95264.63
2022-09-10T02:05:26.555Z,95257.56
2022-09-10T02:07:56.138Z,95248.34
2022-09-10T02:10:22.922Z,95251.22
2022-09-10T02:12:49.518Z,95253.41
2022-09-10T02:15:18.408Z,95251.91
2022-09-10T02:17:45.512Z,95251.03
2022-09-10T02:20:13.282Z,95256.44
2022-09-10T02:22:43.134Z,95250.38
2022-09-10T02:25:10.711Z,95247.34
2022-09-10T02:27:37.317Z,95237.25
2022-09-10T02:30:06.122Z,95239.53
2022-09-10T02:32:35.323Z,95241.72
2022-09-10T02:35:05.414Z,95237.19
2022-09-10T02:37:32.025Z,95231.75
2022-09-10T02:39:58.666Z,95242.47
2022-09-10T02:42:25.306Z,95240.13
2022-09-10T02:44:51.880Z,95241.72
2022-09-10T02:47:18.464Z,95228.91
2022-09-10T02:49:45.075Z,95237.19
2022-09-10T02:52:11.752Z,95234.72
2022-09-10T02:54:38.487Z,95237.69
2022-09-10T02:57:05.209Z,95239.44
2022-09-10T02:59:31.784Z,95241.50
2022-09-10T03:01:58.453Z,95240.19
2022-09-10T03:04:25.177Z,95236.31
2022-09-10T03:06:51.794Z,95238.97
2022-09-10T03:09:18.398Z,95227.09
2022-09-10T03:11:45.064Z,95228.53
2022-09-10T03:14:11.804Z,95232.38
2022-09-10T03:16:38.500Z,95232.19
2022-09-10T03:19:05.132Z,95227.88
2022-09-10T03:21:31.695Z,95232.06
2022-09-10T03:23:58.357Z,95224.59
2022-09-10T03:26:25.236Z,95223.72
2022-09-10T03:28:51.998Z,95231.66
2022-09-10T03:31:19.097Z,95226.97
2022-09-10T03:33:45.730Z,95226.81
2022-09-10T03:36:12.327Z,95228.03
2022-09-10T03:38:39.341Z,95233.47
2022-09-10T03:41:06.062Z,95224.56
2022-09-10T03:43:32.721Z,95231.38
2022-09-10T03:45:59.327Z,95226.94
2022-09-10T03:48:25.949Z,95221.16
2022-09-10T03:50:52.566Z,95225.84
2022-09-10T03:53:19.654Z,95226.16
2022-09-10T03:55:48.747Z,95230.25
2022-09-10T03:58:16.668Z,95226.69
2022-09-10T04:00:43.587Z,95222.69
2022-09-10T04:03:10.381Z,95223.72
2022-09-10T04:05:39.352Z,95222.16
2022-09-10T04:08:06.402Z,95222.13
2022-09-10T04:10:33.349Z,95218.63
2022-09-10T04:12:59.924Z,95214.09
2022-09-10T04:15:26.583Z,95212.28
2022-09-10T04:17:53.236Z,95210.00
2022-09-10T04:20:19.889Z,95216.81
2022-09-10T04:22:47.624Z,95218.56
2022-09-10T04:25:14.933Z,95209.53
2022-09-10T04:27:45.740Z,95215.09
2022-09-10T04:30:13.103Z,95215.41
2022-09-10T04:32:39.698Z,95223.53
2022-09-10T04:35:09.142Z,95219.25
2022-09-10T04:37:35.811Z,95220.81
2022-09-10T04:40:02.908Z,95220.63
2022-09-10T04:42:29.623Z,95225.19
2022-09-10T04:44:56.200Z,95228.09
2022-09-10T04:47:22.778Z,95233.34
2022-09-10T04:49:49.378Z,95238.56
2022-09-10T04:52:15.968Z,95234.84
2022-09-10T04:54:42.736Z,95233.53
2022-09-10T04:57:09.698Z,95239.28
2022-09-10T04:59:36.284Z,95243.97
2022-09-10T05:02:03.142Z,95236.72
2022-09-10T05:04:29.740Z,95241.97
2022-09-10T05:06:56.320Z,95243.38
2022-09-10T05:09:22.897Z,95243.38
2022-09-10T05:11:49.500Z,95242.31
2022-09-10T05:14:16.434Z,95250.78
2022-09-10T05:16:43.049Z,95252.03
2022-09-10T05:19:09.792Z,95255.72
2022-09-10T05:21:36.358Z,95258.19
2022-09-10T05:24:03.110Z,95252.53
2022-09-10T05:26:29.798Z,95255.44
2022-09-10T05:28:56.411Z,95260.78
2022-09-10T05:31:23.036Z,95257.25
2022-09-10T05:33:49.738Z,95260.84
2022-09-10T05:36:16.388Z,95271.56
2022-09-10T05:38:45.380Z,95273.25
2022-09-10T05:41:12.797Z,95266.91
2022-09-10T05:43:39.472Z,95266.84
2022-09-10T05:46:06.116Z,95271.06
2022-09-10T05:48:32.729Z,95269.19
2022-09-10T05:50:59.293Z,95263.13
2022-09-10T05:53:25.915Z,95266.59
2022-09-10T05:55:52.487Z,95270.91
2022-09-10T05:58:19.077Z,95280.19
2022-09-10T06:00:45.654Z,95278.78
2022-09-10T06:03:12.393Z,95279.78
2022-09-10T06:05:39.027Z,95281.38
2022-09-10T06:08:08.770Z,95283.91
2022-09-10T06:10:35.815Z,95284.16
2022-09-10T06:13:02.378Z,95283.06
2022-09-10T06:15:28.984Z,95283.56
2022-09-10T06:17:55.613Z,95280.63
2022-09-10T06:20:22.329Z,95282.28
2022-09-10T06:22:48.941Z,95286.28
2022-09-10T06:25:15.519Z,95283.91
2022-09-10T06:27:42.088Z,95284.94
2022-09-10T06:30:08.923Z,95292.75
2022-09-10T06:32:35.564Z,95298.19
2022-09-10T06:35:02.121Z,95301.13
2022-09-10T06:37:28.700Z,95292.56
2022-09-10T06:39:55.443Z,95296.88
2022-09-10T06:42:22.084Z,95297.34
2022-09-10T06:44:48.649Z,95292.81
2022-09-10T06:50:01.920Z,95300.78
2022-09-10T06:52:29.324Z,95303.13
2022-09-10T06:54:55.969Z,95297.78
2022-09-10T06:57:25.911Z,95293.28
2022-09-10T06:59:52.383Z,95304.03
2022-09-10T07:02:21.775Z,95290.47
2022-09-10T07:04:48.473Z,95297.34
2022-09-10T07:07:15.127Z,95293.16
2022-09-10T07:09:41.703Z,95298.50
2022-09-10T07:12:08.280Z,95302.25
2022-09-10T07:14:34.883Z,95304.13
2022-09-10T07:17:01.463Z,95308.69
2022-09-10T07:19:28.050Z,95306.31
2022-09-10T07:21:54.684Z,95310.06
2022-09-10T07:24:21.260Z,95308.47
2022-09-10T07:26:47.917Z,95314.31
2022-09-10T07:29:14.592Z,95314.84
2022-09-10T07:31:41.195Z,95312.44
2022-09-10T07:34:07.766Z,95322.34
2022-09-10T07:36:34.375Z,95323.16
2022-09-10T07:39:00.986Z,95331.22
2022-09-10T07:41:30.656Z,95327.88
2022-09-10T07:43:57.948Z,95328.97
2022-09-10T07:46:24.721Z,95343.25
2022-09-10T07:48:56.137Z,95330.69
2022-09-10T07:51:22.841Z,95332.44
2022-09-10T07:53:53.714Z,95330.28
2022-09-10T07:56:20.485Z,95335.47
2022-09-10T07:58:50.767Z,95330.34
2022-09-10T08:01:17.445Z,95329.44
2022-09-10T08:03:44.026Z,95326.88
2022-09-10T08:06:10.611Z,95334.59
2022-09-10T08:08:39.036Z,95326.88
2022-09-10T08:11:17.026Z,95331.84
2022-09-10T08:13:48.808Z,95319.69
2022-09-10T08:16:20.933Z,95324.34
2022-09-10T08:18:48.101Z,95320.28
2022-09-10T08:21:18.036Z,95336.88
2022-09-10T08:23:51.630Z,95331.53
2022-09-10T08:26:21.352Z,95333.13
2022-09-10T08:28:47.975Z,95327.31
2022-09-10T08:31:15.547Z,95338.38
2022-09-10T08:33:50.399Z,95331.66
2022-09-10T08:36:18.574Z,95342.22
2022-09-10T08:39:08.135Z,95347.78
2022-09-10T08:41:37.687Z,95347.31
2022-09-10T08:44:10.393Z,95349.78
2022-09-10T08:46:42.978Z,95361.13
2022-09-10T08:49:33.538Z,95356.00
2022-09-10T08:52:15.651Z,95346.28
2022-09-10T08:54:53.317Z,95349.56
2022-09-10T08:57:26.602Z,95346.19
2022-09-10T08:59:54.902Z,95350.81
2022-09-10T09:02:57.056Z,95360.19
2022-09-10T09:05:24.993Z,95354.03
2022-09-10T09:07:52.164Z,95351.91
2022-09-10T09:10:24.931Z,95355.66
2022-09-10T09:13:16.678Z,95353.50
2022-09-10T09:15:55.427Z,95352.72
2022-09-10T09:18:28.388Z,95359.16
2022-09-10T09:20:57.848Z,95355.34
2022-09-10T09:23:29.942Z,95354.78
2022-09-10T09:26:04.577Z,95351.78
2022-09-10T09:28:47.806Z,95354.97
2022-09-10T09:31:17.864Z,95349.66
2022-09-10T09:33:45.072Z,95351.84
2022-09-10T09:36:17.012Z,95356.53
2022-09-10T09:38:49.386Z,95352.00
2022-09-10T09:41:41.891Z,95342.88
2022-09-10T09:44:28.879Z,95347.22
2022-09-10T09:46:55.449Z,95349.34
2022-09-10T09:49:23.412Z,95354.84
2022-09-10T09:51:50.143Z,95348.69
2022-09-10T09:54:56.932Z,95339.03
2022-09-10T09:57:15.585Z,95339.94
2022-09-10T09:59:42.314Z,95342.75
2022-09-10T10:02:14.308Z,95335.03
2022-09-10T10:05:01.686Z,95332.34
2022-09-10T10:07:30.954Z,95324.22
2022-09-10T10:10:07.233Z,95324.00
2022-09-10T10:12:34.204Z,95326.03
2022-09-10T10:15:01.342Z,95326.13
2022-09-10T10:17:39.373Z,95321.72
2022-09-10T10:20:08.080Z,95325.63
2022-09-10T10:22:36.060Z,95324.66
2022-09-10T10:25:05.169Z,95320.91
2022-09-10T10:27:37.002Z,95313.06
2022-09-10T10:30:09.554Z,95315.50
2022-09-10T10:32:58.904Z,95302.38
2022-09-10T10:35:31.460Z,95310.19
2022-09-10T10:38:09.707Z,95300.72
2022-09-10T10:41:10.381Z,95304.63
2022-09-10T10:44:08.014Z,95298.94
2022-09-10T10:46:56.603Z,95297.69
2022-09-10T10:49:50.933Z,95300.56
2022-09-10T10:52:33.138Z,95297.03
2022-09-10T10:55:20.993Z,95290.69
2022-09-10T10:57:57.894Z,95291.97
2022-09-10T11:00:24.684Z,95282.22
2022-09-10T11:03:11.199Z,95289.31
2022-09-10T11:05:39.432Z,95294.47
2022-09-10T11:08:17.991Z,95290.81
2022-09-10T11:10:51.848Z,95292.25
2022-09-10T11:13:22.040Z,95289.53
2022-09-10T11:15:59.600Z,95291.44
2022-09-10T11:18:50.372Z,95291.75
2022-09-10T11:21:39.813Z,95283.88
2022-09-10T11:24:17.245Z,95282.75
2022-09-10T11:26:58.661Z,95282.22
2022-09-10T11:29:25.310Z,95276.16
2022-09-10T11:31:59.470Z,95278.63
2022-09-10T11:34:32.492Z,95279.16
2022-09-10T11:37:05.232Z,95273.72
2022-09-10T11:39:42.467Z,95281.50
2022-09-10T11:42:27.678Z,95270.31
2022-09-10T11:45:05.546Z,95280.31
2022-09-10T11:47:39.231Z,95282.31
2022-09-10T11:50:15.195Z,95276.59
2022-09-10T11:52:42.204Z,95290.81
2022-09-10T11:55:14.320Z,95285.00
2022-09-10T11:57:43.827Z,95283.72
2022-09-10T12:00:11.293Z,95287.41
2022-09-10T12:02:53.156Z,95283.53
2022-09-10T12:05:32.891Z,95284.84
2022-09-10T12:08:18.321Z,95290.59
2022-09-10T12:11:06.648Z,95280.22
2022-09-10T12:13:37.088Z,95288.03
2022-09-10T12:16:15.388Z,95279.25
2022-09-10T12:18:45.523Z,95279.13
2022-09-10T12:21:34.819Z,95276.59
2022-09-10T12:24:05.440Z,95276.28
2022-09-10T12:26:41.582Z,95279.22
2022-09-10T12:29:24.792Z,95289.44
2022-09-10T12:32:09.831Z,95276.91
2022-09-10T12:34:36.867Z,95272.63
2022-09-10T12:37:03.344Z,95269.13
2022-09-10T12:39:30.300Z,95269.31
2022-09-10T12:42:01.729Z,95261.44
2022-09-10T12:44:30.225Z,95266.09
2022-09-10T12:47:14.880Z,95267.53
2022-09-10T12:49:51.326Z,95266.75
2022-09-10T12:52:35.888Z,95272.00
2022-09-10T12:55:39.822Z,95265.63
2022-09-10T12:58:19.283Z,95264.06
2022-09-10T13:00:58.789Z,95267.63
2022-09-10T13:03:27.878Z,95262.84
2022-09-10T13:05:56.767Z,95266.06
2022-09-10T13:08:27.861Z,95265.00
2022-09-10T13:10:58.615Z,95272.28
2022-09-10T13:13:56.011Z,95266.03
2022-09-10T13:16:25.632Z,95256.81
2022-09-10T13:18:56.952Z,95246.25
2022-09-10T13:21:23.806Z,95255.63
2022-09-10T13:23:51.783Z,95250.41
2022-09-10T13:26:30.404Z,95253.09
2022-09-10T13:28:56.938Z,95259.50
2022-09-10T13:31:42.507Z,95251.72
2022-09-10T13:34:15.147Z,95265.50
2022-09-10T13:37:04.566Z,95257.94
2022-09-10T13:39:36.272Z,95260.13
2022-09-10T13:42:35.866Z,95255.09
2022-09-10T13:45:22.136Z,95240.16
2022-09-10T13:48:12.396Z,95253.72
2022-09-10T13:51:01.625Z,95243.59
2022-09-10T13:53:29.056Z,95246.91
2022-09-10T13:55:58.933Z,95251.28
2022-09-10T13:58:28.308Z,95253.41
2022-09-10T14:00:57.373Z,95246.41
2022-09-10T14:03:35.818Z,95244.41
2022-09-10T14:06:02.924Z,95254.28
2022-09-10T14:08:35.207Z,95241.69
2022-09-10T14:11:13.685Z,95247.31
2022-09-10T14:13:45.164Z,95237.78
2022-09-10T14:16:16.279Z,95236.00
2022-09-10T14:18:46.263Z,95234.41
2022-09-10T14:21:14.211Z,95237.97
2022-09-10T14:23:45.811Z,95236.72
2022-09-10T14:26:15.554Z,95240.78
2022-09-10T14:28:50.112Z,95242.69
2022-09-10T14:31:24.801Z,95240.06
2022-09-10T14:33:51.437Z,95237.47
2022-09-10T14:36:21.222Z,95238.72
2022-09-10T14:39:06.704Z,95240.53
2022-09-10T14:41:34.472Z,95237.72
2022-09-10T14:44:26.607Z,95240.00
2022-09-10T14:46:57.542Z,95236.59
2022-09-10T14:49:35.489Z,95232.72
2022-09-10T14:52:02.898Z,95236.28
2022-09-10T14:54:30.541Z,95228.31
2022-09-10T14:56:57.808Z,95227.22
2022-09-10T14:59:30.055Z,95238.69
2022-09-10T15:01:57.433Z,95238.19
2022-09-10T15:04:25.397Z,95235.28
2022-09-10T15:06:56.984Z,95238.53
2022-09-10T15:09:24.800Z,95233.75
2022-09-10T15:12:08.286Z,95237.66
2022-09-10T15:14:35.198Z,95233.81
2022-09-10T15:17:02.199Z,95230.56
2022-09-10T15:19:28.829Z,95229.41
2022-09-10T15:21:55.411Z,95227.34
2022-09-10T15:24:23.054Z,95222.31
2022-09-10T15:26:49.948Z,95228.94
2022-09-10T15:29:17.069Z,95224.44
2022-09-10T15:31:43.709Z,95222.53
2022-09-10T15:34:11.243Z,95220.28
2022-09-10T15:36:40.255Z,95219.63
2022-09-10T15:39:10.433Z,95220.28
2022-09-10T15:41:41.192Z,95220.72
2022-09-10T15:44:07.869Z,95220.09
2022-09-10T15:46:34.464Z,95223.91
2022-09-10T15:49:03.872Z,95231.84
2022-09-10T15:51:32.603Z,95219.50
2022-09-10T15:54:04.298Z,95223.47
2022-09-10T15:56:33.176Z,95221.44
2022-09-10T15:58:59.798Z,95220.19
2022-09-10T16:01:27.128Z,95227.81
2022-09-10T16:03:56.104Z,95227.72
2022-09-10T16:06:24.165Z,95216.25
2022-09-10T16:09:02.503Z,95220.19
2022-09-10T16:11:30.730Z,95214.44
2022-09-10T16:14:02.179Z,95224.31
2022-09-10T16:16:31.629Z,95228.13
2022-09-10T16:18:58.315Z,95221.16
2022-09-10T16:21:27.521Z,95222.28
2022-09-10T16:23:56.218Z,95214.31
2022-09-10T16:26:28.228Z,95219.19
2022-09-10T16:28:56.957Z,95219.75
2022-09-10T16:31:30.306Z,95223.13
2022-09-10T16:33:58.999Z,95230.22
2022-09-10T16:36:26.633Z,95222.22
2022-09-10T16:38:57.451Z,95230.84
2022-09-10T16:41:26.442Z,95230.06
2022-09-10T16:43:53.384Z,95233.25
2022-09-10T16:46:20.025Z,95236.19
2022-09-10T16:48:47.318Z,95234.06
2022-09-10T16:51:15.681Z,95234.06
2022-09-10T16:53:52.203Z,95231.34
2022-09-10T16:56:18.799Z,95240.88
2022-09-10T16:58:47.574Z,95233.59
2022-09-10T17:01:14.769Z,95235.56
2022-09-10T17:03:46.205Z,95239.88
2022-09-10T17:06:17.400Z,95234.00
2022-09-10T17:08:44.370Z,95229.66
2022-09-10T17:11:12.061Z,95238.25
2022-09-10T17:13:38.621Z,95238.25
2022-09-10T17:16:28.815Z,95232.63
2022-09-10T17:19:04.248Z,95236.16
2022-09-10T17:21:32.002Z,95236.13
2022-09-10T17:23:59.090Z,95232.91
2022-09-10T17:26:26.485Z,95234.44
2022-09-10T17:28:57.990Z,95233.38
2022-09-10T17:31:25.068Z,95229.94
2022-09-10T17:33:51.848Z,95227.16
2022-09-10T17:36:18.469Z,95248.09
2022-09-10T17:38:45.716Z,95237.66
2022-09-10T17:41:12.536Z,95239.28
2022-09-10T17:43:39.404Z,95240.38
2022-09-10T17:46:07.352Z,95234.22
2022-09-10T17:48:34.034Z,95240.84
2022-09-10T17:51:00.639Z,95235.28
2022-09-10T17:53:27.809Z,95240.72
2022-09-10T17:55:54.675Z,95239.91
2022-09-10T17:58:21.310Z,95239.69
2022-09-10T18:00:48.265Z,95239.72
2022-09-10T18:03:17.968Z,95246.19
2022-09-10T18:05:45.438Z,95246.91
2022-09-10T18:08:12.738Z,95243.38
2022-09-10T18:10:39.650Z,95251.28
2022-09-10T18:13:06.390Z,95251.88
2022-09-10T18:15:32.968Z,95255.34
2022-09-10T18:18:02.747Z,95256.16
2022-09-10T18:20:29.573Z,95259.06
2022-09-10T18:22:58.689Z,95259.91
2022-09-10T18:25:28.966Z,95264.91
2022-09-10T18:27:55.680Z,95273.75
2022-09-10T18:30:22.267Z,95279.47
2022-09-10T18:32:48.937Z,95272.25
2022-09-10T18:35:15.584Z,95287.78
2022-09-10T18:37:42.162Z,95280.28
2022-09-10T18:40:09.471Z,95283.56
2022-09-10T18:42:36.501Z,95295.56
2022-09-10T18:45:03.356Z,95289.91
2022-09-10T18:47:44.146Z,95295.81
2022-09-10T18:50:11.403Z,95295.28
2022-09-10T18:52:38.037Z,95293.69
2022-09-10T18:55:05.066Z,95304.38
2022-09-10T18:57:31.691Z,95300.03
2022-09-10T18:59:58.422Z,95305.38
2022-09-10T19:02:25.082Z,95308.06
2022-09-10T19:05:10.347Z,95310.25
2022-09-10T19:07:37.700Z,95312.13
2022-09-10T19:10:04.656Z,95311.88
2022-09-10T19:12:31.585Z,95310.81
2022-09-10T19:14:58.179Z,95323.13
2022-09-10T19:17:24.884Z,95317.28
2022-09-10T19:19:51.460Z,95325.31
2022-09-10T19:22:18.027Z,95330.16
2022-09-10T19:24:54.440Z,95326.97
2022-09-10T19:27:22.189Z,95326.16
2022-09-10T19:29:48.796Z,95328.56
2022-09-10T19:32:15.415Z,95337.66
2022-09-10T19:34:42.087Z,95336.59
2022-09-10T19:37:08.649Z,95345.94
2022-09-10T19:39:35.337Z,95343.78
2022-09-10T19:42:01.943Z,95340.59
2022-09-10T19:44:28.533Z,95339.06
2022-09-10T19:46:55.126Z,95346.50
2022-09-10T19:49:21.699Z,95343.88
2022-09-10T19:51:48.288Z,95349.22
2022-09-10T19:54:14.965Z,95349.50
2022-09-10T19:56:44.367Z,95349.75
2022-09-10T19:59:10.971Z,95355.91
2022-09-10T20:01:40.068Z,95357.00
2022-09-10T20:04:09.028Z,95354.34
2022-09-10T20:06:36.421Z,95365.28
2022-09-10T20:09:05.041Z,95368.22
2022-09-10T20:11:33.039Z,95368.19
2022-09-10T20:14:01.644Z,95366.88
2022-09-10T20:16:29.556Z,95365.00
2022-09-10T20:18:56.236Z,95369.31
2022-09-10T20:21:25.777Z,95365.50
2022-09-10T20:23:53.516Z,95364.66
2022-09-10T20:26:24.705Z,95367.91
2022-09-10T20:28:53.902Z,95368.16
2022-09-10T20:31:23.303Z,95367.56
2022-09-10T20:33:54.452Z,95365.97
2022-09-10T20:36:21.042Z,95367.56
2022-09-10T20:38:47.634Z,95373.59
2022-09-10T20:41:14.380Z,95368.00
2022-09-10T20:43:41.037Z,95374.97
2022-09-10T20:46:15.732Z,95376.72
2022-09-10T20:48:48.365Z,95366.00
2022-09-10T20:51:16.336Z,95356.41
2022-09-10T20:53:43.334Z,95358.81
2022-09-10T20:56:12.596Z,95348.94
2022-09-10T20:58:39.510Z,95353.47
2022-09-10T21:01:12.557Z,95351.34
2022-09-10T21:03:40.289Z,95355.34
2022-09-10T21:06:07.878Z,95356.88
2022-09-10T21:08:35.609Z,95357.84
2022-09-10T21:11:07.070Z,95362.63
2022-09-10T21:13:34.843Z,95357.22
2022-09-10T21:16:15.240Z,95356.72
2022-09-10T21:18:42.378Z,95345.66
2022-09-10T21:21:35.467Z,95359.97
2022-09-10T21:24:08.394Z,95358.72
2022-09-10T21:26:36.644Z,95360.66
2022-09-10T21:29:05.896Z,95358.53
2022-09-10T21:31:32.894Z,95365.50
2022-09-10T21:34:03.039Z,95363.63
2022-09-10T21:36:31.403Z,95367.09
2022-09-10T21:39:00.269Z,95366.53
2022-09-10T21:41:32.105Z,95370.25
2022-09-10T21:44:00.374Z,95371.25
2022-09-10T21:46:27.441Z,95373.34
2022-09-10T21:48:54.361Z,95370.31
2022-09-10T21:51:21.845Z,95373.16
2022-09-10T21:53:52.273Z,95376.28
2022-09-10T21:56:19.038Z,95382.97
2022-09-10T21:58:45.748Z,95384.63
2022-09-10T22:01:14.969Z,95382.41
2022-09-10T22:03:41.638Z,95378.81
2022-09-10T22:06:16.556Z,95382.56
2022-09-10T22:08:45.674Z,95386.63
2022-09-10T22:11:15.044Z,95385.78
2022-09-10T22:13:42.124Z,95377.97
2022-09-10T22:16:10.116Z,95379.19
2022-09-10T22:18:41.740Z,95373.28
2022-09-10T22:21:09.334Z,95385.78
2022-09-10T22:23:37.731Z,95390.03
2022-09-10T22:26:12.594Z,95385.19
2022-09-10T22:28:39.408Z,95389.19
2022-09-10T22:31:09.719Z,95391.94
2022-09-10T22:33:40.952Z,95385.69
2022-09-10T22:36:11.080Z,95383.78
2022-09-10T22:38:37.813Z,95393.09
2022-09-10T22:41:05.200Z,95384.50
2022-09-10T22:43:34.260Z,95379.03
2022-09-10T22:46:01.284Z,95387.78
2022-09-10T22:48:27.980Z,95386.91
2022-09-10T22:50:54.572Z,95390.84
2022-09-10T22:53:22.690Z,95384.88
2022-09-10T22:55:49.366Z,95389.66
2022-09-10T22:58:16.196Z,95381.22
2022-09-10T23:00:42.797Z,95382.72
2022-09-10T23:03:09.433Z,95375.09
2022-09-10T23:05:38.621Z,95388.22
2022-09-10T23:08:05.298Z,95392.25
2022-09-10T23:10:31.881Z,95385.13
2022-09-10T23:12:58.474Z,95393.69
2022-09-10T23:15:25.102Z,95390.31
2022-09-10T23:17:53.915Z,95390.94
2022-09-10T23:20:20.526Z,95392.19
2022-09-10T23:22:48.215Z,95388.72
2022-09-10T23:25:14.834Z,95392.31
2022-09-10T23:27:41.392Z,95403.31
2022-09-10T23:30:08.432Z,95394.69
2022-09-10T23:32:35.018Z,95391.66
2022-09-10T23:35:01.708Z,95401.72
2022-09-10T23:37:28.278Z,95398.59
2022-09-10T23:39:55.128Z,95399.72
2022-09-10T23:42:21.767Z,95404.94
2022-09-10T23:44:48.355Z,95393.25
2022-09-10T23:47:14.942Z,95396.22
2022-09-10T23:49:41.582Z,95395.84
2022-09-10T23:52:08.199Z,95394.63
2022-09-10T23:54:34.871Z,95398.38
2022-09-10T23:57:01.459Z,95400.38
2022-09-10T23:59:28.070Z,95401.66
